Inicio METAR Ruta Wind Satelite

Informe Meteorológico

Fecha: 2024/06/18 20:27:13 Local
2024.06.19 01:27 UTC


Operación:VFR
SKLC 190100Z NIL =

SKLC 182200Z 18003KT 110V250 9999 SCT020 30/26 Q1006
SKLC 182100Z 17005KT 120V220 9999 SCT017 29/26 Q1007
SKLC 182000Z 16008KT 130V210 9999 SCT017 29/25 Q1008
SKLC 181900Z VRB03KT 9999 SCT015TCU 30/26 Q1009 RMK TCU/SW
SKLC 181800Z 20004KT 110V260 9999 -DZ SCT012 BKN070 28/27 Q1009